createdAt,value
2023-05-19T00:01:50.283Z,13.70
2023-05-19T00:06:54.602Z,12.40
2023-05-19T00:11:58.134Z,10.50
2023-05-19T00:22:05.475Z,9.00
2023-05-19T00:27:08.451Z,8.50
2023-05-19T00:32:11.648Z,8.00
2023-05-19T00:37:14.686Z,7.10
2023-05-19T00:42:18.106Z,6.70
2023-05-19T00:47:21.236Z,5.80
2023-05-19T00:52:24.278Z,6.10
2023-05-19T00:57:28.244Z,6.50
2023-05-19T01:02:32.511Z,6.00
2023-05-19T01:07:36.919Z,6.80
2023-05-19T01:12:41.040Z,6.00
2023-05-19T01:18:14.468Z,5.50
2023-05-19T01:23:59.353Z,5.90
2023-05-19T01:29:37.130Z,5.60
2023-05-19T01:34:44.521Z,5.60
2023-05-19T01:39:48.616Z,5.80
2023-05-19T01:44:52.574Z,5.40
2023-05-19T01:49:55.563Z,5.70
2023-05-19T01:54:58.613Z,6.10
2023-05-19T02:00:11.804Z,5.50
2023-05-19T02:05:29.613Z,4.40
2023-05-19T02:10:35.907Z,5.10
2023-05-19T02:15:42.472Z,5.00
2023-05-19T02:20:45.907Z,5.40
2023-05-19T02:25:49.075Z,4.90
2023-05-19T02:30:52.112Z,5.40
2023-05-19T02:35:55.125Z,5.40
2023-05-19T02:40:58.719Z,4.70
2023-05-19T02:51:04.978Z,4.80
2023-05-19T02:56:07.965Z,5.30
2023-05-19T03:01:11.238Z,5.40
2023-05-19T03:06:14.264Z,5.40
2023-05-19T03:11:17.830Z,4.50
2023-05-19T03:16:22.106Z,4.80
2023-05-19T03:21:25.186Z,5.20
2023-05-19T03:26:29.427Z,5.10
2023-05-19T03:31:32.493Z,4.60
2023-05-19T03:36:41.490Z,4.80
2023-05-19T03:41:44.494Z,4.70
2023-05-19T03:46:47.504Z,5.20
2023-05-19T03:51:50.671Z,5.40
2023-05-19T03:56:53.715Z,5.50
2023-05-19T04:01:57.934Z,4.30
2023-05-19T04:07:01.378Z,4.70
2023-05-19T04:12:04.754Z,4.90
2023-05-19T04:17:08.397Z,5.40
2023-05-19T04:27:16.116Z,4.30
2023-05-19T04:32:19.302Z,4.10
2023-05-19T04:37:22.392Z,4.10
2023-05-19T04:42:26.306Z,4.70
2023-05-19T04:47:30.202Z,5.00
2023-05-19T04:52:33.875Z,4.80
2023-05-19T05:02:41.521Z,4.60
2023-05-19T05:07:44.657Z,4.40
2023-05-19T05:12:47.982Z,4.90
2023-05-19T05:17:51.740Z,5.00
2023-05-19T05:22:55.189Z,4.30
2023-05-19T05:27:59.070Z,4.50
2023-05-19T05:33:02.454Z,4.80
2023-05-19T05:38:05.454Z,5.10
2023-05-19T05:43:08.410Z,4.50
2023-05-19T05:48:11.843Z,5.50
2023-05-19T05:53:20.513Z,4.00
2023-05-19T05:58:24.381Z,4.70
2023-05-19T06:03:27.419Z,4.80
2023-05-19T06:08:30.490Z,4.70
2023-05-19T06:13:33.468Z,5.50
2023-05-19T06:18:36.450Z,8.90
2023-05-19T06:23:43.671Z,5.10
2023-05-19T06:28:46.862Z,5.50
2023-05-19T06:33:49.821Z,5.20
2023-05-19T06:38:52.895Z,6.30
2023-05-19T06:43:56.682Z,6.40
2023-05-19T06:48:59.661Z,5.10
2023-05-19T06:54:03.220Z,6.70
2023-05-19T07:04:09.261Z,6.40
2023-05-19T07:09:12.296Z,8.20
2023-05-19T07:14:15.753Z,5.80
2023-05-19T07:19:22.602Z,6.00
2023-05-19T07:24:27.613Z,6.90
2023-05-19T07:29:30.607Z,7.10
2023-05-19T07:34:33.635Z,8.20
2023-05-19T07:39:36.611Z,7.70
2023-05-19T07:44:39.589Z,7.70
2023-05-19T07:49:42.603Z,8.00
2023-05-19T07:54:48.939Z,6.80
2023-05-19T07:59:51.940Z,8.10
2023-05-19T08:04:55.083Z,7.50
2023-05-19T08:09:58.180Z,7.20
2023-05-19T08:15:01.733Z,6.90
2023-05-19T08:20:10.337Z,7.40
2023-05-19T08:25:13.917Z,7.80
2023-05-19T08:35:19.985Z,7.20
2023-05-19T08:40:23.599Z,6.80
2023-05-19T08:45:27.609Z,6.70
2023-05-19T08:50:33.494Z,8.50
2023-05-19T08:56:18.403Z,7.20
2023-05-19T09:01:22.736Z,6.90
2023-05-19T09:06:26.867Z,7.30
2023-05-19T09:11:29.907Z,8.20
2023-05-19T09:16:34.158Z,6.80
2023-05-19T09:21:37.628Z,9.40
2023-05-19T09:26:42.820Z,8.20
2023-05-19T09:31:54.109Z,7.70
2023-05-19T09:36:59.851Z,7.80
2023-05-19T09:42:05.381Z,7.60
2023-05-19T09:47:09.984Z,7.30
2023-05-19T09:52:16.367Z,7.40
2023-05-19T09:57:27.139Z,7.10
2023-05-19T10:02:31.623Z,7.30
2023-05-19T10:07:35.402Z,7.60
2023-05-19T10:12:39.983Z,7.60
2023-05-19T10:17:45.102Z,6.90
2023-05-19T10:22:48.859Z,7.20
2023-05-19T10:27:57.531Z,11.80
2023-05-19T10:33:02.898Z,72.30
2023-05-19T10:38:53.457Z,9.30
2023-05-19T10:44:21.433Z,9.60
2023-05-19T10:49:24.780Z,7.90
2023-05-19T10:54:47.307Z,8.80
2023-05-19T10:59:50.656Z,7.70
2023-05-19T11:04:58.650Z,8.10
2023-05-19T11:10:07.206Z,11.40
2023-05-19T11:15:25.735Z,9.50
2023-05-19T11:20:39.633Z,9.20
2023-05-19T11:25:47.632Z,8.70
2023-05-19T11:30:51.966Z,9.00
2023-05-19T11:35:59.835Z,10.50
2023-05-19T11:41:03.868Z,13.80
2023-05-19T11:46:06.907Z,10.10
2023-05-19T11:51:09.938Z,11.20
2023-05-19T11:56:12.975Z,10.50
2023-05-19T12:01:17.379Z,11.70
2023-05-19T12:06:20.442Z,8.70
2023-05-19T12:11:28.919Z,10.00
2023-05-19T12:16:35.883Z,15.90
2023-05-19T12:21:39.360Z,9.50
2023-05-19T12:26:42.516Z,9.40
2023-05-19T12:31:47.235Z,9.90
2023-05-19T12:36:53.346Z,8.80
2023-05-19T12:42:10.590Z,8.80
2023-05-19T12:47:15.852Z,10.40
2023-05-19T12:52:18.927Z,8.50
2023-05-19T12:57:23.311Z,9.50
2023-05-19T13:02:27.672Z,8.00
2023-05-19T13:07:30.756Z,8.20
2023-05-19T13:12:33.748Z,10.80
2023-05-19T13:17:36.935Z,10.80
2023-05-19T13:22:39.943Z,10.60
2023-05-19T13:27:45.988Z,10.00
2023-05-19T13:32:49.053Z,9.40
2023-05-19T13:37:52.240Z,9.70
2023-05-19T13:42:55.194Z,12.90
2023-05-19T13:47:58.364Z,11.30
2023-05-19T13:53:08.375Z,10.80
2023-05-19T13:58:12.545Z,10.20
2023-05-19T14:03:19.675Z,10.70
2023-05-19T14:08:22.911Z,12.00
2023-05-19T14:13:33.049Z,12.30
2023-05-19T14:18:38.521Z,11.90
2023-05-19T14:23:41.818Z,10.60
2023-05-19T14:33:47.686Z,11.00
2023-05-19T14:38:50.689Z,19.50
2023-05-19T14:43:54.153Z,11.80
2023-05-19T14:54:00.649Z,14.60
2023-05-19T14:59:04.568Z,16.80
2023-05-19T15:04:07.567Z,14.10
2023-05-19T15:09:14.472Z,25.60
2023-05-19T15:14:17.740Z,14.30
2023-05-19T15:19:21.012Z,16.40
2023-05-19T15:24:27.332Z,22.20
2023-05-19T15:34:33.393Z,10.60
2023-05-19T15:39:36.400Z,11.80
2023-05-19T15:44:39.356Z,11.30
2023-05-19T15:49:42.378Z,13.70
2023-05-19T15:54:45.407Z,15.50
2023-05-19T15:59:48.398Z,15.60
2023-05-19T16:04:51.967Z,13.30
2023-05-19T16:09:55.111Z,13.20
2023-05-19T16:14:58.056Z,16.00
2023-05-19T16:20:01.018Z,13.70
2023-05-19T16:25:07.758Z,12.40
2023-05-19T16:30:11.559Z,12.10
2023-05-19T16:35:14.724Z,15.70
2023-05-19T16:40:17.791Z,16.90
2023-05-19T16:45:20.950Z,16.40
2023-05-19T16:50:24.024Z,16.10
2023-05-19T16:55:27.101Z,19.30
2023-05-19T17:00:30.230Z,19.80
2023-05-19T17:05:33.179Z,18.90
2023-05-19T17:10:37.088Z,19.00
2023-05-19T17:15:41.660Z,19.40
2023-05-19T17:20:46.086Z,21.40
2023-05-19T17:25:49.063Z,20.10
2023-05-19T17:30:52.056Z,18.80
2023-05-19T17:35:55.017Z,21.60
2023-05-19T17:41:02.448Z,40.20
2023-05-19T17:46:06.219Z,30.80
2023-05-19T17:51:09.545Z,18.70
2023-05-19T17:56:13.322Z,17.60
2023-05-19T18:01:18.026Z,19.90
2023-05-19T18:06:21.357Z,64.70
2023-05-19T18:11:24.790Z,45.60
2023-05-19T18:21:32.681Z,37.10
2023-05-19T18:26:37.874Z,33.80
2023-05-19T18:31:41.757Z,23.70
2023-05-19T18:36:44.756Z,26.90
2023-05-19T18:41:47.972Z,30.70
2023-05-19T18:46:52.381Z,41.60
2023-05-19T18:51:55.351Z,29.40
2023-05-19T18:56:59.326Z,40.30
2023-05-19T19:02:03.200Z,29.60
2023-05-19T19:07:06.155Z,36.00
2023-05-19T19:12:09.486Z,32.70
2023-05-19T19:17:12.547Z,17.60
2023-05-19T19:22:15.780Z,16.20
2023-05-19T19:27:20.694Z,15.90
2023-05-19T19:32:24.116Z,20.20
2023-05-19T19:37:27.238Z,25.60
2023-05-19T19:42:31.895Z,21.80
2023-05-19T19:47:35.033Z,19.50
2023-05-19T19:52:38.162Z,18.30
2023-05-19T19:57:41.145Z,19.20
2023-05-19T20:03:02.814Z,21.10
2023-05-19T20:08:08.684Z,20.40
2023-05-19T20:13:11.625Z,19.20
2023-05-19T20:18:14.974Z,20.30
2023-05-19T20:23:17.983Z,19.40
2023-05-19T20:28:23.191Z,23.40
2023-05-19T20:33:27.232Z,20.40
2023-05-19T20:38:30.361Z,21.20
2023-05-19T20:43:33.926Z,25.60
2023-05-19T20:48:36.943Z,23.00
2023-05-19T20:53:39.958Z,24.10
2023-05-19T20:58:43.082Z,25.20
2023-05-19T21:03:46.254Z,24.10
2023-05-19T21:08:49.218Z,23.20
2023-05-19T21:13:52.186Z,22.10
2023-05-19T21:18:55.166Z,23.70
2023-05-19T21:23:58.201Z,22.60
2023-05-19T21:29:01.292Z,22.90
2023-05-19T21:34:04.940Z,22.40
2023-05-19T21:39:07.924Z,25.10
2023-05-19T21:44:10.944Z,24.70
2023-05-19T21:49:13.923Z,25.70
2023-05-19T21:54:16.908Z,24.30
2023-05-19T21:59:23.259Z,23.70
2023-05-19T22:04:27.164Z,24.40
2023-05-19T22:09:30.121Z,23.20
2023-05-19T22:14:33.114Z,21.60
2023-05-19T22:19:36.385Z,22.50
2023-05-19T22:24:39.967Z,22.40
2023-05-19T22:29:42.983Z,22.30
2023-05-19T22:34:46.445Z,21.10
2023-05-19T22:39:49.582Z,21.80
2023-05-19T22:44:52.599Z,21.30
2023-05-19T22:49:57.133Z,19.80
2023-05-19T22:55:00.362Z,19.40
2023-05-19T23:00:04.107Z,20.30
2023-05-19T23:05:08.199Z,21.30
2023-05-19T23:10:11.574Z,20.30
2023-05-19T23:25:20.484Z,20.70
2023-05-19T23:30:23.487Z,25.00
2023-05-19T23:35:26.590Z,23.30
2023-05-19T23:40:29.605Z,22.70
2023-05-19T23:45:32.980Z,23.50
2023-05-19T23:50:36.121Z,24.80
2023-05-19T23:55:39.088Z,23.70
